createdAt,value
2022-07-25T00:04:09.615Z,15.6
2022-07-25T00:09:12.530Z,15.5
2022-07-25T00:14:17.062Z,15.5
2022-07-25T00:19:21.587Z,15.5
2022-07-25T00:24:25.104Z,15.6
2022-07-25T00:29:29.638Z,15.5
2022-07-25T00:34:34.212Z,15.6
2022-07-25T00:39:37.742Z,15.5
2022-07-25T00:44:42.299Z,15.4
2022-07-25T00:49:46.787Z,15.5
2022-07-25T00:54:50.371Z,15.5
2022-07-25T00:59:54.884Z,15.4
2022-07-25T01:04:59.444Z,15.4
2022-07-25T01:10:03.994Z,15.5
2022-07-25T01:15:07.486Z,15.4
2022-07-25T01:20:12.113Z,15.4
2022-07-25T01:25:16.639Z,15.4
2022-07-25T01:30:20.265Z,15.4
2022-07-25T01:35:24.724Z,15.4
2022-07-25T01:40:29.269Z,15.4
2022-07-25T01:45:32.844Z,15.4
2022-07-25T01:50:37.327Z,15.4
2022-07-25T01:55:41.884Z,15.4
2022-07-25T02:00:45.430Z,15.4
2022-07-25T02:05:49.949Z,15.3
2022-07-25T02:10:54.472Z,15.4
2022-07-25T02:15:59.001Z,15.3
2022-07-25T02:21:02.620Z,15.3
2022-07-25T02:26:06.138Z,15.3
2022-07-25T02:31:10.783Z,15.3
2022-07-25T02:36:15.200Z,15.2
2022-07-25T02:41:18.740Z,15.3
2022-07-25T02:46:23.314Z,15.3
2022-07-25T02:51:27.787Z,15.2
2022-07-25T02:56:32.350Z,15.2
2022-07-25T03:01:35.924Z,15.1
2022-07-25T03:06:40.417Z,15.2
2022-07-25T03:11:44.966Z,15.2
2022-07-25T03:16:48.541Z,15.1
2022-07-25T03:21:53.080Z,15.1
2022-07-25T03:26:57.564Z,15.1
2022-07-25T03:32:01.217Z,15.2
2022-07-25T03:37:05.687Z,15.1
2022-07-25T03:42:10.190Z,15.1
2022-07-25T03:47:20.546Z,15.1
2022-07-25T03:52:18.299Z,15.2
2022-07-25T03:57:22.883Z,15.1
2022-07-25T04:02:27.453Z,15.1
2022-07-25T04:07:30.909Z,15.2
2022-07-25T04:12:35.439Z,15.1
2022-07-25T04:17:39.974Z,15.2
2022-07-25T04:22:46.729Z,15.2
2022-07-25T04:27:48.044Z,15.2
2022-07-25T04:32:52.574Z,15.2
2022-07-25T04:37:56.131Z,15.3
2022-07-25T04:43:00.684Z,15.3
2022-07-25T04:48:05.228Z,15.4
2022-07-25T04:53:08.746Z,15.4
2022-07-25T04:58:13.321Z,15.5
2022-07-25T05:03:17.825Z,15.6
2022-07-25T05:08:22.389Z,15.6
2022-07-25T05:13:25.926Z,15.7
2022-07-25T05:18:30.456Z,15.7
2022-07-25T05:23:34.963Z,15.8
2022-07-25T05:28:38.550Z,16
2022-07-25T05:33:43.061Z,16.1
2022-07-25T05:38:47.826Z,16.3
2022-07-25T05:43:51.151Z,16.2
2022-07-25T05:48:55.763Z,16.5
2022-07-25T05:54:00.197Z,16.7
2022-07-25T05:59:03.808Z,16.9
2022-07-25T06:04:08.867Z,16.9
2022-07-25T06:09:12.854Z,16.9
2022-07-25T06:14:17.367Z,17.1
2022-07-25T06:19:20.938Z,17.2
2022-07-25T06:24:25.702Z,17.1
2022-07-25T06:29:29.998Z,17.5
2022-07-25T06:34:33.562Z,17.2
2022-07-25T06:39:37.132Z,17.2
2022-07-25T06:44:41.634Z,17.3
2022-07-25T06:49:46.189Z,17.1
2022-07-25T06:54:50.743Z,17.4
2022-07-25T06:59:54.285Z,17.6
2022-07-25T07:04:58.776Z,18
2022-07-25T07:10:03.345Z,17.8
2022-07-25T07:15:06.891Z,18.1
2022-07-25T07:20:11.457Z,18.5
2022-07-25T07:25:15.979Z,19
2022-07-25T07:30:24.101Z,18.8
2022-07-25T07:35:24.033Z,19.4
2022-07-25T07:40:28.571Z,19.4
2022-07-25T07:45:32.158Z,19.7
2022-07-25T07:50:36.720Z,19.7
2022-07-25T07:55:41.288Z,19.3
2022-07-25T08:00:45.797Z,19.6
2022-07-25T08:05:49.409Z,19.8
2022-07-25T08:10:58.593Z,18.8
2022-07-25T08:15:58.443Z,19
2022-07-25T08:21:01.930Z,18.9
2022-07-25T08:26:06.504Z,18.8
2022-07-25T08:31:11.226Z,18.9
2022-07-25T08:36:14.545Z,18.9
2022-07-25T08:41:19.094Z,18.9
2022-07-25T08:46:23.659Z,18.9
2022-07-25T08:51:27.233Z,18.5
2022-07-25T08:56:31.895Z,18.6
2022-07-25T09:01:36.312Z,18.8
2022-07-25T09:06:40.794Z,19
2022-07-25T09:11:44.336Z,18.7
2022-07-25T09:16:48.849Z,18.9
2022-07-25T09:21:53.436Z,19.1
2022-07-25T09:26:57.003Z,19.2
2022-07-25T09:32:01.473Z,19
2022-07-25T09:37:06.047Z,18.9
2022-07-25T09:42:09.586Z,19.4
2022-07-25T09:47:14.122Z,19
2022-07-25T09:52:18.694Z,20
2022-07-25T09:57:22.234Z,19.8
2022-07-25T10:02:26.856Z,19.1
2022-07-25T10:07:31.800Z,19.4
2022-07-25T10:12:35.856Z,19.3
2022-07-25T10:17:39.357Z,19.2
2022-07-25T10:22:56.424Z,19
2022-07-25T10:27:48.446Z,19
2022-07-25T10:32:51.992Z,19.1
2022-07-25T10:37:56.531Z,18.9
2022-07-25T10:43:01.073Z,19.2
2022-07-25T10:48:04.651Z,19.1
2022-07-25T10:53:09.197Z,19.5
2022-07-25T10:58:17.935Z,20.4
2022-07-25T11:03:18.550Z,19.7
2022-07-25T11:08:22.795Z,19.3
2022-07-25T11:13:25.356Z,19.5
2022-07-25T11:18:29.898Z,19.3
2022-07-25T11:23:34.420Z,20
2022-07-25T11:28:37.954Z,20.2
2022-07-25T11:33:42.518Z,20.4
2022-07-25T11:38:47.081Z,20.2
2022-07-25T11:43:50.569Z,20.8
2022-07-25T11:48:55.184Z,21.3
2022-07-25T11:53:59.657Z,21.8
2022-07-25T11:59:04.636Z,22
2022-07-25T12:04:07.749Z,21.3
2022-07-25T12:09:17.976Z,22.3
2022-07-25T12:14:16.818Z,21.8
2022-07-25T12:19:20.399Z,21.8
2022-07-25T12:24:24.922Z,21.8
2022-07-25T12:29:29.446Z,21.1
2022-07-25T12:34:33.006Z,21.1
2022-07-25T12:39:37.539Z,21.3
2022-07-25T12:44:42.056Z,21.4
2022-07-25T12:49:45.618Z,22
2022-07-25T12:54:50.146Z,22
2022-07-25T12:59:54.706Z,21.6
2022-07-25T13:04:59.232Z,21.6
2022-07-25T13:10:02.838Z,21
2022-07-25T13:15:07.344Z,21.1
2022-07-25T13:20:11.897Z,19.9
2022-07-25T13:25:15.459Z,19.6
2022-07-25T13:30:19.969Z,20.4
2022-07-25T13:35:32.604Z,20
2022-07-25T13:40:28.049Z,20.4
2022-07-25T13:45:32.641Z,20
2022-07-25T13:50:37.172Z,20
2022-07-25T13:55:40.659Z,20
2022-07-25T14:00:45.339Z,20.3
2022-07-25T14:05:49.784Z,20.3
2022-07-25T14:10:54.305Z,20.7
2022-07-25T14:15:57.862Z,20.2
2022-07-25T14:21:02.392Z,20.3
2022-07-25T14:26:06.962Z,19.9
2022-07-25T14:31:10.632Z,19.6
2022-07-25T14:36:15.028Z,19.9
2022-07-25T14:41:19.542Z,20.4
2022-07-25T14:46:23.134Z,20.4
2022-07-25T14:51:27.637Z,19.9
2022-07-25T14:56:32.256Z,19.8
2022-07-25T15:01:35.794Z,19.4
2022-07-25T15:06:40.261Z,19.3
2022-07-25T15:11:43.849Z,19.1
2022-07-25T15:16:48.495Z,19
2022-07-25T15:21:52.929Z,18.8
2022-07-25T15:26:56.463Z,18.6
2022-07-25T15:32:01.093Z,18.8
2022-07-25T15:37:05.555Z,18.6
2022-07-25T15:42:09.074Z,18.4
2022-07-25T15:47:13.679Z,18.5
2022-07-25T15:52:18.171Z,18.7
2022-07-25T15:57:22.708Z,18.6
2022-07-25T16:02:26.246Z,18.6
2022-07-25T16:07:30.783Z,18.6
2022-07-25T16:12:35.283Z,18.2
2022-07-25T16:17:38.850Z,18.4
2022-07-25T16:22:43.386Z,18
2022-07-25T16:27:47.941Z,18
2022-07-25T16:32:51.485Z,18.3
2022-07-25T16:37:56.022Z,18
2022-07-25T16:43:00.543Z,18
2022-07-25T16:48:04.139Z,17.8
2022-07-25T16:53:08.635Z,17.6
2022-07-25T16:58:13.153Z,17.5
2022-07-25T17:03:17.699Z,17.6
2022-07-25T17:08:21.263Z,17.8
2022-07-25T17:13:25.791Z,17.8
2022-07-25T17:18:30.307Z,17.8
2022-07-25T17:23:33.851Z,17.8
2022-07-25T17:28:38.421Z,17.8
2022-07-25T17:33:42.957Z,17.4
2022-07-25T17:38:46.505Z,17.2
2022-07-25T17:43:50.989Z,17.3
2022-07-25T17:48:55.652Z,17
2022-07-25T17:53:59.101Z,16.9
2022-07-25T17:59:03.623Z,16.6
2022-07-25T18:04:08.763Z,16.6
2022-07-25T18:09:12.704Z,16.5
2022-07-25T18:14:16.288Z,16.5
2022-07-25T18:19:20.796Z,16.4
2022-07-25T18:24:29.211Z,16.5
2022-07-25T18:29:28.841Z,16.4
2022-07-25T18:34:33.405Z,16.5
2022-07-25T18:39:37.955Z,16.6
2022-07-25T18:44:41.458Z,16.4
2022-07-25T18:49:46.006Z,16.4
2022-07-25T18:54:50.535Z,16.3
2022-07-25T18:59:54.133Z,16.2
2022-07-25T19:04:58.722Z,16.1
2022-07-25T19:10:03.165Z,16.2
2022-07-25T19:15:07.743Z,16.2
2022-07-25T19:20:11.266Z,16.1
2022-07-25T19:25:14.852Z,15.9
2022-07-25T19:30:19.348Z,15.9
2022-07-25T19:35:26.203Z,15.9
2022-07-25T19:40:27.457Z,15.7
2022-07-25T19:45:31.977Z,15.7
2022-07-25T19:50:36.467Z,15.7
2022-07-25T19:55:41.043Z,15.6
2022-07-25T20:00:44.575Z,15.2
2022-07-25T20:05:49.100Z,15.1
2022-07-25T20:10:53.637Z,14.9
2022-07-25T20:15:57.209Z,14.8
2022-07-25T20:21:01.760Z,14.7
2022-07-25T20:26:06.261Z,14.6
2022-07-25T20:31:09.896Z,14.6
2022-07-25T20:36:14.333Z,14.5
2022-07-25T20:41:18.885Z,14.5
2022-07-25T20:46:22.485Z,14.5
2022-07-25T20:51:26.970Z,14.4
2022-07-25T20:56:31.504Z,14.4
2022-07-25T21:01:36.133Z,14.4
2022-07-25T21:06:39.564Z,14.1
2022-07-25T21:11:44.148Z,14.1
2022-07-25T21:16:48.755Z,14.1
2022-07-25T21:21:52.189Z,14.1
2022-07-25T21:26:56.761Z,14
2022-07-25T21:32:01.370Z,14
2022-07-25T21:37:04.813Z,14
2022-07-25T21:42:09.335Z,14
2022-07-25T21:47:13.904Z,14.1
2022-07-25T21:52:17.465Z,14.1
2022-07-25T21:57:21.989Z,14.1
2022-07-25T22:02:26.503Z,14.1
2022-07-25T22:07:31.079Z,14
2022-07-25T22:12:34.607Z,14.1
2022-07-25T22:17:49.287Z,14.1
2022-07-25T22:22:43.640Z,14.1
2022-07-25T22:27:47.187Z,14.2
2022-07-25T22:32:51.742Z,14.2
2022-07-25T22:37:56.303Z,14.1
2022-07-25T22:42:59.822Z,14.2
2022-07-25T22:48:04.430Z,14.2
2022-07-25T22:53:08.897Z,14.3
2022-07-25T22:58:12.465Z,14.3
2022-07-25T23:03:17.120Z,14.3
2022-07-25T23:08:21.518Z,14.3
2022-07-25T23:13:26.077Z,14.5
2022-07-25T23:18:29.602Z,14.5
2022-07-25T23:23:34.153Z,14.4
2022-07-25T23:28:38.679Z,14.4
2022-07-25T23:33:42.225Z,14.4
2022-07-25T23:38:45.771Z,14.4
2022-07-25T23:43:57.319Z,14.3
2022-07-25T23:48:55.022Z,14.5
2022-07-25T23:53:59.568Z,14.3
2022-07-25T23:59:02.937Z,14.4
